Time;durP1;ratioP1;P1;durP2;ratioP2;P2;SDS_P1;SDS_P2;PMS_P1;PMS_P2;Temp;Humidity;BMP_temperature;BMP_pressure;BME280_temperature;BME280_humidity;BME280_pressure;Samples;Min_cycle;Max_cycle;Signal;HPM_P1;HPM_P2
2022/09/16 00:00:12;;;;;;;6.45;4.47;;;;;;;;;;5158841;27;20027;-59
2022/09/16 00:02:38;;;;;;;4.65;4.13;;;;;;;;;;5159096;27;20367;-60
2022/09/16 00:05:04;;;;;;;5.22;3.88;;;;;;;;;;5159156;27;20093;-59
2022/09/16 00:07:30;;;;;;;4.53;3.67;;;;;;;;;;5159245;27;20106;-60
2022/09/16 00:09:56;;;;;;;9.60;4.45;;;;;;;;;;5159276;27;20394;-59
2022/09/16 00:12:22;;;;;;;7.70;3.28;;;;;;;;;;5158884;27;20023;-59
2022/09/16 00:14:48;;;;;;;4.43;3.42;;;;;;;;;;5159652;27;20027;-59
2022/09/16 00:17:14;;;;;;;7.53;3.63;;;;;;;;;;5159372;27;20524;-59
2022/09/16 00:19:40;;;;;;;3.85;3.47;;;;;;;;;;5158806;27;20482;-59
2022/09/16 00:22:06;;;;;;;5.65;4.05;;;;;;;;;;5159249;27;20050;-59
2022/09/16 00:24:32;;;;;;;6.32;3.78;;;;;;;;;;5158767;27;20134;-60
2022/09/16 00:26:58;;;;;;;4.50;3.58;;;;;;;;;;5158672;27;20027;-59
2022/09/16 00:29:24;;;;;;;4.18;3.75;;;;;;;;;;5159167;27;20027;-59
2022/09/16 00:31:50;;;;;;;5.53;4.07;;;;;;;;;;5158553;27;20030;-60
2022/09/16 00:34:16;;;;;;;4.15;3.20;;;;;;;;;;5159301;27;20045;-59
2022/09/16 00:36:42;;;;;;;5.55;3.55;;;;;;;;;;5158767;27;20030;-59
2022/09/16 00:39:08;;;;;;;4.63;3.33;;;;;;;;;;5158521;27;20023;-59
2022/09/16 00:41:35;;;;;;;8.60;3.88;;;;;;;;;;5158318;27;20027;-59
2022/09/16 00:44:06;;;;;;;4.82;3.78;;;;;;;;;;5159172;27;20030;-59
2022/09/16 00:46:37;;;;;;;3.95;3.35;;;;;;;;;;5158487;27;20027;-59
2022/09/16 00:49:06;;;;;;;4.78;3.65;;;;;;;;;;5158508;27;20026;-59
2022/09/16 00:51:32;;;;;;;5.03;3.92;;;;;;;;;;5158000;27;20057;-59
2022/09/16 00:54:02;;;;;;;4.60;3.30;;;;;;;;;;5158633;27;20035;-60
2022/09/16 00:56:30;;;;;;;5.35;3.83;;;;;;;;;;5157997;27;20037;-59
2022/09/16 00:59:23;;;;;;;6.13;3.67;;;;;;;;;;5158049;27;20019;-60
2022/09/16 01:01:50;;;;;;;4.82;3.65;;;;;;;;;;5155737;27;20503;-59
2022/09/16 01:04:19;;;;;;;4.45;3.33;;;;;;;;;;5158287;27;20445;-59
2022/09/16 01:06:45;;;;;;;6.15;3.92;;;;;;;;;;5158398;27;20052;-60
2022/09/16 01:09:11;;;;;;;5.82;3.35;;;;;;;;;;5157449;27;20075;-59
2022/09/16 01:11:37;;;;;;;5.03;3.80;;;;;;;;;;5158043;27;20571;-59
2022/09/16 01:16:56;;;;;;;3.95;3.33;;;;;;;;;;5158032;27;20053;-59
2022/09/16 01:19:43;;;;;;;5.55;4.05;;;;;;;;;;5158232;27;20118;-60
2022/09/16 01:22:09;;;;;;;3.97;2.78;;;;;;;;;;5146532;27;20031;-59
2022/09/16 01:24:47;;;;;;;4.28;3.35;;;;;;;;;;5157847;27;20029;-59
2022/09/16 01:27:16;;;;;;;9.70;3.55;;;;;;;;;;5157764;27;20030;-59
2022/09/16 01:30:01;;;;;;;4.53;3.40;;;;;;;;;;5157437;27;20364;-59
2022/09/16 01:32:30;;;;;;;3.85;3.08;;;;;;;;;;5157103;27;20465;-60
2022/09/16 01:35:14;;;;;;;6.50;3.67;;;;;;;;;;5157801;27;20038;-60
2022/09/16 01:37:50;;;;;;;8.07;4.28;;;;;;;;;;5157865;27;20113;-59
2022/09/16 01:40:20;;;;;;;5.50;3.65;;;;;;;;;;5157602;27;20451;-59
2022/09/16 01:42:50;;;;;;;4.95;3.60;;;;;;;;;;5157599;27;20111;-59
2022/09/16 01:45:23;;;;;;;4.88;3.90;;;;;;;;;;5157214;27;20029;-59
2022/09/16 01:47:49;;;;;;;6.70;3.28;;;;;;;;;;5157706;27;20026;-59
2022/09/16 01:50:22;;;;;;;5.68;3.55;;;;;;;;;;5157307;27;20027;-59
2022/09/16 01:52:54;;;;;;;4.55;3.63;;;;;;;;;;5156686;27;20043;-59
2022/09/16 01:55:36;;;;;;;5.55;3.65;;;;;;;;;;5157242;27;20023;-60
2022/09/16 01:58:10;;;;;;;4.53;3.95;;;;;;;;;;5157354;27;20022;-59
2022/09/16 02:00:39;;;;;;;5.07;4.20;;;;;;;;;;5157057;27;20041;-59
2022/09/16 02:03:07;;;;;;;7.93;3.85;;;;;;;;;;5157127;27;20026;-59
2022/09/16 02:05:44;;;;;;;9.18;4.47;;;;;;;;;;5157015;27;20078;-59
2022/09/16 02:08:12;;;;;;;4.97;3.63;;;;;;;;;;5156656;27;20031;-59
2022/09/16 02:10:40;;;;;;;7.22;4.28;;;;;;;;;;5156563;27;20071;-59
2022/09/16 02:13:16;;;;;;;4.25;3.50;;;;;;;;;;5156530;27;20056;-59
2022/09/16 02:15:44;;;;;;;3.95;3.15;;;;;;;;;;5156827;27;20100;-59
2022/09/16 02:18:12;;;;;;;5.13;3.63;;;;;;;;;;5156504;27;20421;-59
2022/09/16 02:20:40;;;;;;;5.15;3.42;;;;;;;;;;5156123;27;20020;-59
2022/09/16 02:23:10;;;;;;;3.40;2.72;;;;;;;;;;5156728;27;20472;-59
2022/09/16 02:25:37;;;;;;;4.40;3.35;;;;;;;;;;5156508;27;20341;-59
2022/09/16 02:28:06;;;;;;;4.50;3.17;;;;;;;;;;5156817;27;20023;-59
2022/09/16 02:30:32;;;;;;;4.28;3.00;;;;;;;;;;5156803;27;20452;-59
2022/09/16 02:32:59;;;;;;;4.60;3.25;;;;;;;;;;5156716;27;20030;-59
2022/09/16 02:35:26;;;;;;;4.65;3.05;;;;;;;;;;5156201;27;20081;-60
2022/09/16 02:37:55;;;;;;;7.68;3.80;;;;;;;;;;5155995;27;20027;-59
2022/09/16 02:40:31;;;;;;;6.15;2.95;;;;;;;;;;5156899;27;20031;-59
2022/09/16 02:42:58;;;;;;;4.78;2.65;;;;;;;;;;5156370;27;20023;-59
2022/09/16 02:45:26;;;;;;;3.25;2.35;;;;;;;;;;5156773;27;20023;-60
2022/09/16 02:48:04;;;;;;;4.38;2.28;;;;;;;;;;5155976;27;20031;-59
2022/09/16 02:50:50;;;;;;;4.95;2.17;;;;;;;;;;5155960;27;20023;-60
2022/09/16 02:53:27;;;;;;;5.07;2.47;;;;;;;;;;5156348;27;20460;-60
2022/09/16 02:55:56;;;;;;;3.65;2.55;;;;;;;;;;5156176;27;20033;-59
2022/09/16 02:58:22;;;;;;;6.57;2.30;;;;;;;;;;5155800;27;20030;-59
2022/09/16 03:00:51;;;;;;;4.60;1.65;;;;;;;;;;5156493;27;20076;-59
2022/09/16 03:03:17;;;;;;;2.65;1.52;;;;;;;;;;5155131;27;20023;-59
2022/09/16 03:06:02;;;;;;;4.75;2.30;;;;;;;;;;5155969;27;20038;-59
2022/09/16 03:08:28;;;;;;;4.45;2.25;;;;;;;;;;5155686;27;20049;-59
2022/09/16 03:10:54;;;;;;;3.92;2.33;;;;;;;;;;5155618;27;20070;-59
2022/09/16 03:13:27;;;;;;;3.75;2.47;;;;;;;;;;5155877;27;20434;-59
2022/09/16 03:16:08;;;;;;;7.72;2.17;;;;;;;;;;5155940;27;20030;-59
2022/09/16 03:18:49;;;;;;;4.93;2.03;;;;;;;;;;5155876;27;20034;-59
2022/09/16 03:21:15;;;;;;;2.47;1.95;;;;;;;;;;5155534;27;20023;-59
2022/09/16 03:24:00;;;;;;;3.40;2.05;;;;;;;;;;5156044;27;20065;-59
2022/09/16 03:26:49;;;;;;;3.38;2.72;;;;;;;;;;5155467;27;20030;-59
2022/09/16 03:29:21;;;;;;;5.82;2.30;;;;;;;;;;5147211;27;20088;-59
2022/09/16 03:31:47;;;;;;;6.97;2.25;;;;;;;;;;5155706;27;20027;-59
2022/09/16 03:34:26;;;;;;;2.92;1.85;;;;;;;;;;5155941;27;20031;-59
2022/09/16 03:36:58;;;;;;;3.95;1.42;;;;;;;;;;5155979;27;20026;-59
2022/09/16 03:39:24;;;;;;;3.88;1.80;;;;;;;;;;5155308;27;20054;-59
2022/09/16 03:41:50;;;;;;;2.72;2.10;;;;;;;;;;5155881;27;20023;-59
2022/09/16 03:44:16;;;;;;;5.03;2.58;;;;;;;;;;5155643;27;20034;-60
2022/09/16 03:46:42;;;;;;;4.95;2.30;;;;;;;;;;5155878;27;20463;-59
2022/09/16 03:49:09;;;;;;;2.90;1.90;;;;;;;;;;5155592;27;20114;-59
2022/09/16 03:51:35;;;;;;;3.63;1.95;;;;;;;;;;5155444;27;20042;-59
2022/09/16 03:54:01;;;;;;;5.03;2.55;;;;;;;;;;5155772;27;20033;-59
2022/09/16 03:56:27;;;;;;;3.38;1.85;;;;;;;;;;5155193;27;20457;-59
2022/09/16 03:58:53;;;;;;;3.08;2.30;;;;;;;;;;5155493;27;20037;-59
2022/09/16 04:01:20;;;;;;;4.18;2.58;;;;;;;;;;5155124;27;20023;-59
2022/09/16 04:03:46;;;;;;;4.15;1.52;;;;;;;;;;5155150;27;20030;-59
2022/09/16 04:06:12;;;;;;;3.80;1.90;;;;;;;;;;5155138;27;20094;-59
2022/09/16 04:08:38;;;;;;;3.20;1.60;;;;;;;;;;5155391;27;20023;-59
2022/09/16 04:11:05;;;;;;;4.82;1.60;;;;;;;;;;5155612;27;20087;-59
2022/09/16 04:13:32;;;;;;;3.30;1.70;;;;;;;;;;5154920;27;20149;-59
2022/09/16 04:15:58;;;;;;;3.20;1.65;;;;;;;;;;5158927;27;20083;-59
2022/09/16 04:18:24;;;;;;;3.83;1.58;;;;;;;;;;5159407;27;20025;-59
2022/09/16 04:20:50;;;;;;;4.53;2.15;;;;;;;;;;5159108;27;20023;-60
2022/09/16 04:23:16;;;;;;;3.72;2.17;;;;;;;;;;5159348;27;20031;-59
2022/09/16 04:25:42;;;;;;;3.83;1.80;;;;;;;;;;5159001;27;20034;-59
2022/09/16 04:28:08;;;;;;;2.35;1.42;;;;;;;;;;5158693;27;20019;-59
2022/09/16 04:30:34;;;;;;;3.35;1.95;;;;;;;;;;5158658;27;20072;-59
2022/09/16 04:33:00;;;;;;;5.22;2.28;;;;;;;;;;5158470;27;20023;-59
2022/09/16 04:35:26;;;;;;;2.83;1.83;;;;;;;;;;5158547;27;20448;-59
2022/09/16 04:37:52;;;;;;;4.32;2.15;;;;;;;;;;5158504;27;20057;-59
2022/09/16 04:40:18;;;;;;;4.82;2.58;;;;;;;;;;5158485;27;20030;-59
2022/09/16 04:42:50;;;;;;;3.83;1.98;;;;;;;;;;5158405;27;20023;-59
2022/09/16 04:45:17;;;;;;;2.60;1.48;;;;;;;;;;5158977;27;20034;-59
2022/09/16 04:47:43;;;;;;;6.75;2.30;;;;;;;;;;5157945;27;20034;-59
2022/09/16 04:50:10;;;;;;;4.43;2.53;;;;;;;;;;5158275;27;20019;-59
2022/09/16 04:52:36;;;;;;;4.45;1.58;;;;;;;;;;5158580;27;20053;-59
2022/09/16 04:55:02;;;;;;;10.27;3.83;;;;;;;;;;5158455;27;20027;-59
2022/09/16 04:57:31;;;;;;;5.45;1.80;;;;;;;;;;5158032;27;20026;-59
2022/09/16 04:59:57;;;;;;;2.53;1.95;;;;;;;;;;5158499;27;20030;-59
2022/09/16 05:02:23;;;;;;;5.47;2.75;;;;;;;;;;5157983;27;20019;-59
2022/09/16 05:04:49;;;;;;;4.93;2.42;;;;;;;;;;5158298;27;20027;-59
2022/09/16 05:07:15;;;;;;;3.92;1.83;;;;;;;;;;5157896;27;20019;-59
2022/09/16 05:09:42;;;;;;;5.72;2.05;;;;;;;;;;5157898;27;20109;-59
2022/09/16 05:12:08;;;;;;;2.95;2.28;;;;;;;;;;5157735;27;20045;-59
2022/09/16 05:14:34;;;;;;;6.53;2.05;;;;;;;;;;5157944;27;20031;-59
2022/09/16 05:17:00;;;;;;;3.13;2.13;;;;;;;;;;5157966;27;20038;-59
2022/09/16 05:19:26;;;;;;;5.72;2.45;;;;;;;;;;5157643;27;20022;-59
2022/09/16 05:21:52;;;;;;;5.00;2.30;;;;;;;;;;5157661;27;20067;-59
2022/09/16 05:24:17;;;;;;;4.22;2.40;;;;;;;;;;5157951;27;20026;-59
2022/09/16 05:26:43;;;;;;;3.80;2.40;;;;;;;;;;5156697;27;20026;-59
2022/09/16 05:29:14;;;;;;;3.55;2.33;;;;;;;;;;5157442;27;20114;-59
2022/09/16 05:31:40;;;;;;;;;;;;;;;;;;5157898;27;20030;-59
2022/09/16 05:34:16;;;;;;;7.05;2.70;;;;;;;;;;5157410;27;20001;-59
2022/09/16 05:36:43;;;;;;;3.30;2.33;;;;;;;;;;5157871;27;20027;-59
2022/09/16 05:39:10;;;;;;;5.57;2.85;;;;;;;;;;5157926;27;20348;-59
2022/09/16 05:41:36;;;;;;;4.57;2.97;;;;;;;;;;5157130;27;20026;-59
2022/09/16 05:44:03;;;;;;;7.63;3.47;;;;;;;;;;5157184;27;20022;-59
2022/09/16 05:46:29;;;;;;;6.50;2.60;;;;;;;;;;5157689;27;20046;-59
2022/09/16 05:48:55;;;;;;;4.20;2.42;;;;;;;;;;5157881;27;20023;-59
2022/09/16 05:51:22;;;;;;;6.97;3.35;;;;;;;;;;5156790;27;20074;-59
2022/09/16 05:53:49;;;;;;;3.95;3.03;;;;;;;;;;5156830;27;20031;-60
2022/09/16 05:56:17;;;;;;;6.70;3.28;;;;;;;;;;5157445;27;20520;-60
2022/09/16 05:58:43;;;;;;;5.22;2.90;;;;;;;;;;5156846;27;20102;-59
2022/09/16 06:01:14;;;;;;;6.18;3.17;;;;;;;;;;5156831;27;20022;-59
2022/09/16 06:03:40;;;;;;;6.38;2.95;;;;;;;;;;5156884;27;20123;-59
2022/09/16 06:06:07;;;;;;;8.77;2.63;;;;;;;;;;5156743;27;20027;-59
2022/09/16 06:08:34;;;;;;;3.10;2.10;;;;;;;;;;5156689;27;20476;-59
2022/09/16 06:11:01;;;;;;;10.30;2.95;;;;;;;;;;5156497;27;20022;-59
2022/09/16 06:13:27;;;;;;;4.25;2.95;;;;;;;;;;5157009;27;20027;-59
2022/09/16 06:15:53;;;;;;;5.93;2.78;;;;;;;;;;5157001;27;20537;-59
2022/09/16 06:18:20;;;;;;;5.28;3.50;;;;;;;;;;5156994;27;20046;-59
2022/09/16 06:20:46;;;;;;;6.35;3.28;;;;;;;;;;5157234;27;20349;-59
2022/09/16 06:23:12;;;;;;;4.50;3.28;;;;;;;;;;5157073;27;20029;-59
2022/09/16 06:25:38;;;;;;;6.50;3.53;;;;;;;;;;5156365;27;20027;-59
2022/09/16 06:28:04;;;;;;;4.13;3.08;;;;;;;;;;5156801;27;20023;-59
2022/09/16 06:30:30;;;;;;;4.07;2.90;;;;;;;;;;5156218;27;20018;-59
2022/09/16 06:32:56;;;;;;;12.02;3.50;;;;;;;;;;5156739;27;20086;-59
2022/09/16 06:35:22;;;;;;;6.70;2.97;;;;;;;;;;5156172;27;20027;-59
2022/09/16 06:37:48;;;;;;;4.35;2.88;;;;;;;;;;5156268;27;20019;-59
2022/09/16 06:40:15;;;;;;;3.28;2.67;;;;;;;;;;5156188;27;20131;-59
2022/09/16 06:42:41;;;;;;;4.97;2.88;;;;;;;;;;5156027;27;20027;-59
2022/09/16 06:45:07;;;;;;;5.35;3.03;;;;;;;;;;5156591;27;20479;-59
2022/09/16 06:47:33;;;;;;;5.60;3.50;;;;;;;;;;5155920;27;20027;-59
2022/09/16 06:49:59;;;;;;;5.20;2.85;;;;;;;;;;5156193;27;20054;-59
2022/09/16 06:52:26;;;;;;;4.47;2.53;;;;;;;;;;5156016;27;20123;-59
2022/09/16 06:54:52;;;;;;;6.50;3.30;;;;;;;;;;5156141;27;20034;-59
2022/09/16 06:57:21;;;;;;;5.82;2.50;;;;;;;;;;5155638;27;20091;-59
2022/09/16 06:59:47;;;;;;;5.97;2.78;;;;;;;;;;5156153;27;20414;-59
2022/09/16 07:02:13;;;;;;;3.00;2.28;;;;;;;;;;5155304;27;20027;-59
2022/09/16 07:04:39;;;;;;;3.33;2.03;;;;;;;;;;5156045;27;20029;-59
2022/09/16 07:07:05;;;;;;;3.88;2.35;;;;;;;;;;5155401;27;20022;-59
2022/09/16 07:09:31;;;;;;;3.72;2.53;;;;;;;;;;5155974;27;20448;-59
2022/09/16 07:11:58;;;;;;;7.97;2.70;;;;;;;;;;5155296;27;20376;-59
2022/09/16 07:14:24;;;;;;;6.60;2.50;;;;;;;;;;5155546;27;20029;-59
2022/09/16 07:16:50;;;;;;;6.13;2.88;;;;;;;;;;5155157;27;20532;-59
2022/09/16 07:19:16;;;;;;;3.00;2.17;;;;;;;;;;5155575;27;20106;-59
2022/09/16 07:21:42;;;;;;;4.47;3.38;;;;;;;;;;5155811;27;20109;-60
2022/09/16 07:24:10;;;;;;;3.03;2.30;;;;;;;;;;5155860;27;20118;-59
2022/09/16 07:26:39;;;;;;;3.83;2.53;;;;;;;;;;5155478;27;20378;-59
2022/09/16 07:29:06;;;;;;;4.10;2.75;;;;;;;;;;5155733;27;20023;-59
2022/09/16 07:31:33;;;;;;;9.20;3.55;;;;;;;;;;5155867;27;20440;-59
2022/09/16 07:34:03;;;;;;;7.70;2.83;;;;;;;;;;5156072;27;20047;-59
2022/09/16 07:36:32;;;;;;;6.47;4.07;;;;;;;;;;5155390;27;20026;-59
2022/09/16 07:38:58;;;;;;;4.15;3.20;;;;;;;;;;5155160;27;20033;-59
2022/09/16 07:41:26;;;;;;;4.90;3.25;;;;;;;;;;5155281;27;20073;-59
2022/09/16 07:43:53;;;;;;;5.50;3.42;;;;;;;;;;5156184;27;20417;-59
2022/09/16 07:46:19;;;;;;;4.85;3.50;;;;;;;;;;5155222;27;20023;-59
2022/09/16 07:48:46;;;;;;;6.97;3.95;;;;;;;;;;5155357;27;20109;-59
2022/09/16 07:51:13;;;;;;;8.68;4.05;;;;;;;;;;5159711;27;20525;-59
2022/09/16 07:53:40;;;;;;;5.38;3.47;;;;;;;;;;5160097;27;20058;-59
2022/09/16 07:56:11;;;;;;;5.60;3.90;;;;;;;;;;5159610;27;20031;-59
2022/09/16 07:58:38;;;;;;;4.93;3.55;;;;;;;;;;5159223;27;20061;-59
2022/09/16 08:01:06;;;;;;;4.90;3.92;;;;;;;;;;5159171;27;20133;-59
2022/09/16 08:03:33;;;;;;;6.60;3.42;;;;;;;;;;5160049;27;20030;-59
2022/09/16 08:06:00;;;;;;;6.63;4.40;;;;;;;;;;5159671;27;20029;-59
2022/09/16 08:08:26;;;;;;;5.80;4.10;;;;;;;;;;5159148;27;20026;-59
2022/09/16 08:10:53;;;;;;;4.70;3.80;;;;;;;;;;5159043;27;20110;-59
2022/09/16 08:13:19;;;;;;;9.10;4.35;;;;;;;;;;5158944;27;20027;-59
2022/09/16 08:15:45;;;;;;;6.25;4.68;;;;;;;;;;5159260;27;20110;-59
2022/09/16 08:18:11;;;;;;;6.22;4.68;;;;;;;;;;5159382;27;20015;-59
2022/09/16 08:20:37;;;;;;;6.72;4.65;;;;;;;;;;5158802;27;20022;-59
2022/09/16 08:23:03;;;;;;;5.80;4.75;;;;;;;;;;5158893;27;20445;-59
2022/09/16 08:25:29;;;;;;;9.95;5.53;;;;;;;;;;5158741;27;20475;-59
2022/09/16 08:27:55;;;;;;;8.50;6.00;;;;;;;;;;5158375;27;20425;-59
2022/09/16 08:30:21;;;;;;;6.65;4.85;;;;;;;;;;5158615;27;20023;-59
2022/09/16 08:32:47;;;;;;;5.28;4.78;;;;;;;;;;5158605;27;20023;-59
2022/09/16 08:35:13;;;;;;;6.93;4.30;;;;;;;;;;5159012;27;20376;-59
2022/09/16 08:37:40;;;;;;;6.05;4.70;;;;;;;;;;5158808;27;20437;-59
2022/09/16 08:40:06;;;;;;;4.75;4.07;;;;;;;;;;5158797;27;20117;-59
2022/09/16 08:42:55;;;;;;;8.80;5.50;;;;;;;;;;5158660;27;20058;-59
2022/09/16 08:45:40;;;;;;;8.63;4.63;;;;;;;;;;5158377;27;20464;-60
2022/09/16 08:48:12;;;;;;;8.73;4.72;;;;;;;;;;5158314;27;20377;-59
2022/09/16 08:50:40;;;;;;;7.05;4.85;;;;;;;;;;5158052;27;20039;-59
2022/09/16 08:53:16;;;;;;;6.90;5.20;;;;;;;;;;5158685;27;20476;-59
2022/09/16 08:55:45;;;;;;;6.75;5.18;;;;;;;;;;5158222;27;20105;-59
2022/09/16 08:58:14;;;;;;;9.10;5.88;;;;;;;;;;5157995;27;20031;-59
2022/09/16 09:00:42;;;;;;;8.35;5.63;;;;;;;;;;5157997;27;20029;-59
2022/09/16 09:03:08;;;;;;;9.77;5.72;;;;;;;;;;5158612;27;20054;-59
2022/09/16 09:05:39;;;;;;;6.20;4.75;;;;;;;;;;5158319;27;20077;-59
2022/09/16 09:08:14;;;;;;;5.88;5.18;;;;;;;;;;5158801;27;20054;-59
2022/09/16 09:10:45;;;;;;;5.80;4.53;;;;;;;;;;5158220;27;20405;-59
2022/09/16 09:13:18;;;;;;;8.25;5.55;;;;;;;;;;5158103;27;20481;-60
2022/09/16 09:15:44;;;;;;;5.20;4.10;;;;;;;;;;5158166;27;20019;-59
2022/09/16 09:18:23;;;;;;;8.82;4.53;;;;;;;;;;5157780;27;20359;-59
2022/09/16 09:20:54;;;;;;;5.70;4.18;;;;;;;;;;5158255;27;20455;-59
2022/09/16 09:23:39;;;;;;;7.70;4.28;;;;;;;;;;5157700;27;20392;-59
2022/09/16 09:26:12;;;;;;;7.60;3.63;;;;;;;;;;5158478;27;20460;-59
2022/09/16 09:29:14;;;;;;;5.13;3.53;;;;;;;;;;5157206;27;20050;-59
2022/09/16 09:31:46;;;;;;;6.28;3.13;;;;;;;;;;5093456;28;20032;-59
2022/09/16 09:34:31;;;;;;;4.28;3.28;;;;;;;;;;5148326;27;20039;-59
2022/09/16 09:37:06;;;;;;;5.43;3.53;;;;;;;;;;5157355;27;20171;-59
2022/09/16 09:39:42;;;;;;;6.28;4.68;;;;;;;;;;5157027;27;20460;-59
2022/09/16 09:42:31;;;;;;;8.68;4.38;;;;;;;;;;5157856;27;20027;-59
2022/09/16 09:45:17;;;;;;;6.15;3.92;;;;;;;;;;5148792;27;20373;-59
2022/09/16 09:47:48;;;;;;;5.03;3.03;;;;;;;;;;5157180;27;20452;-59
2022/09/16 09:50:14;;;;;;;;;;;;;;;;;;5157803;27;20368;-60
2022/09/16 09:52:45;;;;;;;8.73;3.97;;;;;;;;;;5157208;27;19915;-59
2022/09/16 09:55:19;;;;;;;5.32;4.30;;;;;;;;;;5157260;27;20452;-59
2022/09/16 09:57:57;;;;;;;9.07;3.88;;;;;;;;;;5156965;27;20046;-59
2022/09/16 10:00:23;;;;;;;4.93;4.15;;;;;;;;;;5157240;27;20030;-60
2022/09/16 10:02:49;;;;;;;9.20;4.60;;;;;;;;;;5156842;27;20023;-59
2022/09/16 10:05:20;;;;;;;4.47;3.58;;;;;;;;;;5157134;27;20033;-59
2022/09/16 10:07:46;;;;;;;6.43;4.07;;;;;;;;;;5157158;27;20106;-59
2022/09/16 10:10:16;;;;;;;3.22;2.90;;;;;;;;;;5156787;27;20432;-59
2022/09/16 10:12:42;;;;;;;5.57;3.78;;;;;;;;;;5154942;27;20361;-59
2022/09/16 10:15:38;;;;;;;6.47;4.95;;;;;;;;;;5157076;27;20077;-59
2022/09/16 10:18:11;;;;;;;5.60;3.35;;;;;;;;;;5142748;27;20384;-59
2022/09/16 10:20:38;;;;;;;3.80;3.05;;;;;;;;;;5156804;27;20075;-58
2022/09/16 10:23:06;;;;;;;4.25;3.15;;;;;;;;;;5156540;27;20079;-58
2022/09/16 10:25:32;;;;;;;5.80;3.67;;;;;;;;;;5156452;27;20055;-58
2022/09/16 10:28:00;;;;;;;5.88;4.43;;;;;;;;;;5156907;27;20330;-58
2022/09/16 10:30:32;;;;;;;8.73;4.60;;;;;;;;;;5156840;27;20026;-58
2022/09/16 10:33:03;;;;;;;6.35;4.85;;;;;;;;;;5156895;27;20034;-58
2022/09/16 10:35:31;;;;;;;7.63;5.25;;;;;;;;;;5156693;27;20031;-58
2022/09/16 10:38:00;;;;;;;4.25;3.85;;;;;;;;;;5156439;27;20368;-58
2022/09/16 10:40:27;;;;;;;4.60;3.88;;;;;;;;;;5156441;27;20033;-58
2022/09/16 10:42:54;;;;;;;5.07;4.00;;;;;;;;;;5156072;27;20034;-58
2022/09/16 10:45:25;;;;;;;4.85;3.45;;;;;;;;;;5156424;27;20062;-58
2022/09/16 10:47:54;;;;;;;4.75;3.35;;;;;;;;;;5155942;27;20114;-58
2022/09/16 10:50:20;;;;;;;4.18;3.47;;;;;;;;;;5155703;27;20033;-58
2022/09/16 10:52:47;;;;;;;6.55;4.18;;;;;;;;;;5155969;27;20122;-58
2022/09/16 10:55:19;;;;;;;10.40;3.25;;;;;;;;;;5156456;27;20031;-58
2022/09/16 10:57:45;;;;;;;6.22;3.05;;;;;;;;;;5155625;27;20106;-58
2022/09/16 11:00:16;;;;;;;6.13;3.88;;;;;;;;;;5155876;27;20029;-58
2022/09/16 11:02:57;;;;;;;4.90;2.53;;;;;;;;;;5155506;27;20524;-58
2022/09/16 11:05:31;;;;;;;4.95;2.47;;;;;;;;;;5156092;27;20425;-58
2022/09/16 11:08:00;;;;;;;3.35;2.45;;;;;;;;;;5156121;27;20071;-58
2022/09/16 11:10:38;;;;;;;6.03;3.70;;;;;;;;;;5156031;27;20520;-58
2022/09/16 11:13:19;;;;;;;4.55;2.85;;;;;;;;;;5155234;27;20461;-58
2022/09/16 11:15:51;;;;;;;4.55;3.00;;;;;;;;;;5155913;27;20030;-58
2022/09/16 11:18:26;;;;;;;3.72;2.60;;;;;;;;;;5156463;27;20113;-58
2022/09/16 11:21:05;;;;;;;4.20;3.13;;;;;;;;;;5156108;27;20041;-58
2022/09/16 11:23:38;;;;;;;5.93;3.13;;;;;;;;;;5154912;27;20031;-58
2022/09/16 11:26:19;;;;;;;5.53;3.13;;;;;;;;;;5155886;27;20346;-58
2022/09/16 11:28:50;;;;;;;4.10;3.08;;;;;;;;;;5156334;27;20437;-58
2022/09/16 11:31:15;;;;;;;;;;;;;;;;;;5155824;27;20027;-58
2022/09/16 11:33:47;;;;;;;4.95;2.88;;;;;;;;;;5155882;27;19955;-58
2022/09/16 11:36:25;;;;;;;6.45;2.88;;;;;;;;;;5156055;27;20030;-58
2022/09/16 11:39:04;;;;;;;5.72;3.22;;;;;;;;;;5155407;27;20080;-58
2022/09/16 11:41:50;;;;;;;3.50;2.95;;;;;;;;;;5155714;27;20050;-58
2022/09/16 11:44:23;;;;;;;8.63;3.13;;;;;;;;;;5144714;27;20099;-58
2022/09/16 11:46:52;;;;;;;3.00;2.58;;;;;;;;;;5155779;27;20510;-57
2022/09/16 11:49:29;;;;;;;3.53;2.30;;;;;;;;;;5155097;27;20046;-56
2022/09/16 11:52:01;;;;;;;3.38;2.08;;;;;;;;;;5155204;27;20041;-56
2022/09/16 11:54:51;;;;;;;5.13;2.30;;;;;;;;;;5155013;27;20023;-57
2022/09/16 11:57:18;;;;;;;5.43;2.45;;;;;;;;;;5155698;27;20049;-57
2022/09/16 11:59:59;;;;;;;3.20;1.77;;;;;;;;;;5155037;27;20050;-56
2022/09/16 12:02:31;;;;;;;3.42;1.65;;;;;;;;;;5155071;27;20136;-56
2022/09/16 12:05:13;;;;;;;2.30;1.70;;;;;;;;;;5155425;27;20027;-55
2022/09/16 12:07:42;;;;;;;2.33;1.40;;;;;;;;;;5155738;27;20023;-55
2022/09/16 12:10:08;;;;;;;7.47;2.20;;;;;;;;;;5154775;27;20120;-56
2022/09/16 12:12:57;;;;;;;4.85;1.95;;;;;;;;;;5155144;27;20047;-56
2022/09/16 12:15:28;;;;;;;2.22;1.33;;;;;;;;;;5146820;27;20039;-57
2022/09/16 12:18:01;;;;;;;2.38;1.50;;;;;;;;;;5155770;27;20015;-57
2022/09/16 12:20:27;;;;;;;3.35;1.58;;;;;;;;;;5155077;27;20022;-57
2022/09/16 12:23:03;;;;;;;4.35;1.92;;;;;;;;;;5155760;27;20026;-57
2022/09/16 12:25:55;;;;;;;4.45;1.48;;;;;;;;;;5154762;27;20029;-56
2022/09/16 12:28:34;;;;;;;2.80;1.48;;;;;;;;;;5152051;27;20469;-57
2022/09/16 12:31:15;;;;;;;5.70;1.58;;;;;;;;;;5154756;27;20031;-57
2022/09/16 12:33:41;;;;;;;;;;;;;;;;;;5155835;27;20043;-57
2022/09/16 12:36:10;;;;;;;1.80;0.90;;;;;;;;;;5157926;27;19911;-56
2022/09/16 12:38:36;;;;;;;3.25;1.45;;;;;;;;;;5158802;27;20400;-56
2022/09/16 12:41:21;;;;;;;4.53;1.80;;;;;;;;;;5158448;27;20023;-56
2022/09/16 12:43:59;;;;;;;2.75;1.30;;;;;;;;;;5158475;27;20027;-56
2022/09/16 12:46:30;;;;;;;3.00;1.40;;;;;;;;;;5158455;27;20105;-56
2022/09/16 12:48:59;;;;;;;6.80;1.80;;;;;;;;;;5157996;27;20110;-56
2022/09/16 12:51:43;;;;;;;5.03;1.17;;;;;;;;;;5158176;27;20043;-57
2022/09/16 12:54:21;;;;;;;4.55;1.60;;;;;;;;;;5158547;27;20070;-57
2022/09/16 12:57:10;;;;;;;3.67;1.45;;;;;;;;;;5158403;27;20052;-56
2022/09/16 12:59:59;;;;;;;3.45;1.55;;;;;;;;;;5158674;27;20042;-56
2022/09/16 13:02:33;;;;;;;3.35;1.73;;;;;;;;;;5158443;27;20031;-56
2022/09/16 13:05:02;;;;;;;5.07;1.67;;;;;;;;;;5158503;27;20105;-57
2022/09/16 13:07:32;;;;;;;3.05;1.50;;;;;;;;;;5157716;27;20027;-57
2022/09/16 13:10:06;;;;;;;3.30;1.60;;;;;;;;;;5158099;27;20095;-56
2022/09/16 13:12:32;;;;;;;2.78;1.70;;;;;;;;;;5158031;27;20027;-57
2022/09/16 13:15:00;;;;;;;3.53;2.05;;;;;;;;;;5157770;27;20070;-56
2022/09/16 13:17:33;;;;;;;5.07;2.22;;;;;;;;;;5158325;27;20457;-54
2022/09/16 13:20:14;;;;;;;2.28;1.40;;;;;;;;;;5157829;27;20471;-55
2022/09/16 13:22:40;;;;;;;3.28;1.60;;;;;;;;;;5158043;27;20353;-56
2022/09/16 13:25:27;;;;;;;3.00;2.05;;;;;;;;;;5157953;27;20029;-55
2022/09/16 13:28:00;;;;;;;3.33;1.80;;;;;;;;;;5157261;27;20026;-57
2022/09/16 13:30:38;;;;;;;2.40;1.52;;;;;;;;;;5157309;27;20050;-56
2022/09/16 13:33:11;;;;;;;3.60;1.80;;;;;;;;;;5157103;27;20019;-56
2022/09/16 13:35:39;;;;;;;4.80;2.10;;;;;;;;;;5157453;27;20030;-57
2022/09/16 13:38:31;;;;;;;4.20;1.85;;;;;;;;;;5157382;27;20033;-55
2022/09/16 13:41:01;;;;;;;2.25;1.52;;;;;;;;;;5155505;27;20042;-56
2022/09/16 13:43:29;;;;;;;3.03;1.92;;;;;;;;;;5157938;27;20027;-56
2022/09/16 13:46:06;;;;;;;2.70;1.75;;;;;;;;;;5157430;27;20026;-55
2022/09/16 13:48:43;;;;;;;4.38;1.58;;;;;;;;;;5156683;27;20023;-57
2022/09/16 13:51:14;;;;;;;2.30;1.88;;;;;;;;;;5156691;27;20076;-57
2022/09/16 13:53:48;;;;;;;3.15;1.60;;;;;;;;;;5157095;27;20070;-55
2022/09/16 13:56:23;;;;;;;5.93;1.58;;;;;;;;;;5157903;27;20056;-57
2022/09/16 13:59:05;;;;;;;1.98;1.13;;;;;;;;;;5156983;27;20019;-57
2022/09/16 14:01:36;;;;;;;6.28;1.90;;;;;;;;;;5156880;27;20057;-56
2022/09/16 14:04:12;;;;;;;3.97;1.38;;;;;;;;;;5157490;27;20031;-56
2022/09/16 14:06:44;;;;;;;4.25;1.50;;;;;;;;;;5157130;27;20034;-57
2022/09/16 14:09:19;;;;;;;3.88;1.88;;;;;;;;;;5156775;27;20026;-56
2022/09/16 14:11:52;;;;;;;2.05;1.27;;;;;;;;;;5156615;27;20022;-57
2022/09/16 14:14:20;;;;;;;4.60;1.60;;;;;;;;;;5157101;27;20057;-57
2022/09/16 14:16:47;;;;;;;5.38;2.05;;;;;;;;;;5157079;27;20015;-56
2022/09/16 14:19:23;;;;;;;2.22;1.20;;;;;;;;;;5157421;27;20033;-56
2022/09/16 14:22:08;;;;;;;1.90;1.33;;;;;;;;;;5156528;27;20027;-56
2022/09/16 14:24:38;;;;;;;2.30;1.83;;;;;;;;;;5156563;27;20429;-57
2022/09/16 14:27:04;;;;;;;2.20;1.53;;;;;;;;;;5157173;27;20023;-56
2022/09/16 14:29:30;;;;;;;1.98;1.17;;;;;;;;;;5156351;27;20023;-56
2022/09/16 14:31:56;;;;;;;4.85;1.85;;;;;;;;;;5156221;27;20019;-55
2022/09/16 14:34:32;;;;;;;3.38;1.52;;;;;;;;;;5156532;27;20031;-57
2022/09/16 14:36:58;;;;;;;4.28;1.20;;;;;;;;;;5156179;27;20022;-54
2022/09/16 14:39:26;;;;;;;3.78;1.23;;;;;;;;;;5156267;27;20049;-57
2022/09/16 14:42:02;;;;;;;3.03;1.60;;;;;;;;;;5156507;27;20026;-56
2022/09/16 14:44:28;;;;;;;2.35;1.25;;;;;;;;;;5156737;27;20026;-57
2022/09/16 14:47:14;;;;;;;2.25;1.17;;;;;;;;;;5156945;27;20027;-56
2022/09/16 14:49:41;;;;;;;2.72;1.23;;;;;;;;;;5156344;27;20456;-57
2022/09/16 14:52:17;;;;;;;4.78;1.02;;;;;;;;;;5156246;27;20047;-57
2022/09/16 14:54:43;;;;;;;2.42;1.20;;;;;;;;;;5156155;27;20039;-56
2022/09/16 14:57:23;;;;;;;3.80;1.38;;;;;;;;;;5156245;27;20053;-57
2022/09/16 14:59:50;;;;;;;2.30;1.20;;;;;;;;;;5156400;27;20034;-56
2022/09/16 15:02:35;;;;;;;3.33;1.80;;;;;;;;;;5155763;27;20056;-57
2022/09/16 15:05:07;;;;;;;4.63;1.63;;;;;;;;;;5156410;27;20034;-56